createdAt,value
2017-05-01T00:00:39.543Z,18.56
2017-05-01T00:03:08.628Z,20.46
2017-05-01T00:05:37.717Z,18.56
2017-05-01T00:08:06.802Z,19.64
2017-05-01T00:10:36.003Z,18.72
2017-05-01T00:13:05.087Z,17.64
2017-05-01T00:15:34.914Z,18.48
2017-05-01T00:18:04.746Z,20.84
2017-05-01T00:20:33.832Z,16.38
2017-05-01T00:23:02.919Z,17.06
2017-05-01T00:25:31.999Z,17.52
2017-05-01T00:28:01.118Z,18.10
2017-05-01T00:30:30.198Z,17.88
2017-05-01T00:32:59.431Z,18.92
2017-05-01T00:35:28.523Z,17.98
2017-05-01T00:37:57.607Z,17.08
2017-05-01T00:40:26.709Z,21.02
2017-05-01T00:42:55.783Z,18.80
2017-05-01T00:45:25.612Z,19.22
2017-05-01T00:47:54.703Z,18.70
2017-05-01T00:50:23.947Z,20.56
2017-05-01T00:52:53.055Z,19.28
2017-05-01T00:55:22.106Z,19.38
2017-05-01T00:57:51.200Z,18.14
2017-05-01T01:00:20.335Z,19.18
2017-05-01T01:02:49.439Z,17.88
2017-05-01T01:05:19.266Z,19.48
2017-05-01T01:07:48.587Z,17.98
2017-05-01T01:10:23.258Z,18.74
2017-05-01T01:12:52.719Z,20.86
2017-05-01T01:15:21.815Z,18.22
2017-05-01T01:17:50.909Z,19.90
2017-05-01T01:20:20.015Z,17.38
2017-05-01T01:22:49.087Z,17.38
2017-05-01T01:25:18.922Z,17.12
2017-05-01T01:27:47.995Z,15.36
2017-05-01T01:30:18.015Z,17.70
2017-05-01T01:32:47.095Z,16.38
2017-05-01T01:35:16.191Z,15.88
2017-05-01T01:37:45.307Z,16.48
2017-05-01T01:40:14.389Z,15.66
2017-05-01T01:42:44.368Z,16.34
2017-05-01T01:45:13.428Z,16.50
2017-05-01T01:47:42.520Z,17.44
2017-05-01T01:50:11.636Z,16.30
2017-05-01T01:52:40.691Z,17.62
2017-05-01T01:55:09.771Z,18.62
2017-05-01T01:57:38.864Z,18.16
2017-05-01T02:00:08.305Z,18.20
2017-05-01T02:02:37.368Z,18.64
2017-05-01T02:05:06.447Z,16.74
2017-05-01T02:07:36.493Z,16.92
2017-05-01T02:10:06.267Z,17.34
2017-05-01T02:12:35.351Z,17.96
2017-05-01T02:15:05.207Z,16.76
2017-05-01T02:17:34.292Z,18.08
2017-05-01T02:20:03.403Z,17.20
2017-05-01T02:22:32.495Z,18.24
2017-05-01T02:25:01.782Z,17.68
2017-05-01T02:27:31.573Z,16.62
2017-05-01T02:30:00.634Z,19.08
2017-05-01T02:32:29.780Z,17.12
2017-05-01T02:34:58.882Z,17.28
2017-05-01T02:37:27.986Z,16.20
2017-05-01T02:39:57.073Z,17.22
2017-05-01T02:42:26.279Z,18.08
2017-05-01T02:44:55.369Z,17.44
2017-05-01T02:47:24.414Z,16.90
2017-05-01T02:49:54.263Z,16.22
2017-05-01T02:52:23.487Z,18.28
2017-05-01T02:54:52.567Z,16.84
2017-05-01T02:57:21.614Z,16.18
2017-05-01T02:59:51.482Z,17.78
2017-05-01T03:02:20.552Z,17.70
2017-05-01T03:04:49.934Z,16.52
2017-05-01T03:07:19.760Z,18.28
2017-05-01T03:09:48.821Z,15.12
2017-05-01T03:12:17.922Z,16.48
2017-05-01T03:14:47.750Z,16.92
2017-05-01T03:17:17.175Z,16.48
2017-05-01T03:19:46.971Z,18.00
2017-05-01T03:22:16.007Z,15.76
2017-05-01T03:24:45.114Z,16.60
2017-05-01T03:27:14.207Z,17.94
2017-05-01T03:29:43.283Z,16.84
2017-05-01T03:32:12.371Z,18.60
2017-05-01T03:34:41.602Z,18.92
2017-05-01T03:37:10.690Z,16.70
2017-05-01T03:39:39.755Z,18.78
2017-05-01T03:42:08.858Z,17.42
2017-05-01T03:44:37.935Z,17.42
2017-05-01T03:47:07.236Z,17.58
2017-05-01T03:49:37.026Z,16.30
2017-05-01T03:52:06.115Z,18.74
2017-05-01T03:54:35.959Z,18.16
2017-05-01T03:57:05.051Z,21.12
2017-05-01T03:59:34.151Z,18.12
2017-05-01T04:02:03.247Z,18.68
2017-05-01T04:04:32.495Z,18.58
2017-05-01T04:07:02.319Z,17.18
2017-05-01T04:09:32.155Z,18.22
2017-05-01T04:12:01.264Z,20.06
2017-05-01T04:14:30.347Z,18.78
2017-05-01T04:17:00.146Z,20.58
2017-05-01T04:19:29.231Z,18.98
2017-05-01T04:21:58.310Z,17.92
2017-05-01T04:24:28.132Z,19.06
2017-05-01T04:26:57.562Z,18.32
2017-05-01T04:29:26.647Z,18.74
2017-05-01T04:31:55.739Z,17.38
2017-05-01T04:34:24.831Z,19.52
2017-05-01T04:36:54.629Z,19.70
2017-05-01T04:39:24.471Z,17.32
2017-05-01T04:41:53.534Z,19.16
2017-05-01T04:44:23.686Z,19.32
2017-05-01T04:46:52.766Z,19.58
2017-05-01T04:49:21.851Z,19.38
2017-05-01T04:51:50.978Z,19.84
2017-05-01T04:54:20.112Z,18.26
2017-05-01T04:56:49.223Z,19.78
2017-05-01T04:59:18.963Z,16.20
2017-05-01T05:01:48.370Z,19.28
2017-05-01T05:04:17.426Z,19.94
2017-05-01T05:06:46.479Z,17.74
2017-05-01T05:09:15.578Z,20.50
2017-05-01T05:11:44.655Z,17.04
2017-05-01T05:14:13.892Z,19.60
2017-05-01T05:16:42.950Z,18.70
2017-05-01T05:19:12.040Z,19.72
2017-05-01T05:21:41.147Z,20.68
2017-05-01T05:24:10.192Z,19.08
2017-05-01T05:26:40.315Z,18.08
2017-05-01T05:29:09.399Z,17.78
2017-05-01T05:31:39.223Z,19.12
2017-05-01T05:34:08.332Z,20.52
2017-05-01T05:36:37.370Z,19.02
2017-05-01T05:39:06.488Z,17.60
2017-05-01T05:41:35.552Z,19.44
2017-05-01T05:44:04.663Z,20.18
2017-05-01T05:46:33.752Z,19.10
2017-05-01T05:49:02.838Z,17.82
2017-05-01T05:51:31.963Z,18.90
2017-05-01T05:54:01.112Z,20.90
2017-05-01T05:56:30.199Z,17.88
2017-05-01T05:59:00.003Z,18.90
2017-05-01T06:01:29.271Z,18.84
2017-05-01T06:03:59.094Z,20.24
2017-05-01T06:06:28.176Z,19.24
2017-05-01T06:08:58.032Z,18.78
2017-05-01T06:11:27.242Z,20.36
2017-05-01T06:13:56.329Z,19.04
2017-05-01T06:16:25.416Z,18.84
2017-05-01T06:18:54.667Z,19.70
2017-05-01T06:21:23.942Z,19.16
2017-05-01T06:23:53.039Z,17.92
2017-05-01T06:26:22.151Z,19.92
2017-05-01T06:28:51.236Z,19.38
2017-05-01T06:31:20.369Z,19.92
2017-05-01T06:33:50.254Z,19.34
2017-05-01T06:36:20.528Z,19.04
2017-05-01T06:38:49.738Z,21.08
2017-05-01T06:41:18.815Z,19.68
2017-05-01T06:43:47.945Z,20.46
2017-05-01T06:46:17.015Z,21.38
2017-05-01T06:48:46.408Z,20.92
2017-05-01T06:51:15.487Z,20.24
2017-05-01T06:53:44.605Z,19.44
2017-05-01T06:56:13.731Z,19.10
2017-05-01T06:58:42.825Z,20.62
2017-05-01T07:01:12.144Z,19.78
2017-05-01T07:03:41.199Z,19.74
2017-05-01T07:06:10.304Z,22.58
2017-05-01T07:08:39.443Z,21.68
2017-05-01T07:11:08.544Z,20.96
2017-05-01T07:13:37.772Z,20.82
2017-05-01T07:16:07.192Z,22.14
2017-05-01T07:18:36.299Z,19.50
2017-05-01T07:21:05.424Z,20.86
2017-05-01T07:23:34.478Z,20.68
2017-05-01T07:26:03.683Z,20.94
2017-05-01T07:28:33.264Z,21.20
2017-05-01T07:31:02.335Z,22.16
2017-05-01T07:33:31.479Z,21.66
2017-05-01T07:36:00.571Z,20.72
2017-05-01T07:38:29.756Z,21.08
2017-05-01T07:40:58.842Z,20.24
2017-05-01T07:43:27.927Z,20.70
2017-05-01T07:45:57.038Z,20.96
2017-05-01T07:48:26.243Z,20.36
2017-05-01T07:50:55.466Z,21.88
2017-05-01T07:53:24.571Z,22.28
2017-05-01T07:55:54.406Z,20.84
2017-05-01T07:58:24.235Z,16.54
2017-05-01T08:00:53.319Z,19.08
2017-05-01T08:03:22.842Z,18.86
2017-05-01T08:05:52.047Z,20.22
2017-05-01T08:08:21.138Z,19.54
2017-05-01T08:10:50.267Z,21.28
2017-05-01T08:13:19.462Z,21.64
2017-05-01T08:15:48.583Z,19.06
2017-05-01T08:18:17.678Z,20.60
2017-05-01T08:20:47.527Z,22.16
2017-05-01T08:23:16.595Z,21.88
2017-05-01T08:25:45.736Z,19.58
2017-05-01T08:28:14.990Z,19.54
2017-05-01T08:30:44.162Z,20.90
2017-05-01T08:33:13.247Z,19.24
2017-05-01T08:35:42.340Z,22.32
2017-05-01T08:38:11.564Z,20.74
2017-05-01T08:40:40.679Z,24.26
2017-05-01T08:43:09.780Z,23.26
2017-05-01T08:45:38.909Z,20.86
2017-05-01T08:48:08.029Z,20.40
2017-05-01T08:50:37.517Z,23.22
2017-05-01T08:53:07.388Z,22.52
2017-05-01T08:55:36.476Z,23.02
2017-05-01T08:58:05.596Z,21.48
2017-05-01T09:00:34.706Z,21.90
2017-05-01T09:03:03.824Z,22.78
2017-05-01T09:05:33.670Z,21.42
2017-05-01T09:08:03.197Z,22.40
2017-05-01T09:10:32.276Z,22.02
2017-05-01T09:13:01.384Z,23.06
2017-05-01T09:15:30.504Z,21.40
2017-05-01T09:17:59.623Z,21.84
2017-05-01T09:20:28.819Z,21.48
2017-05-01T09:22:58.675Z,21.34
2017-05-01T09:25:27.752Z,22.96
2017-05-01T09:27:57.025Z,22.98
2017-05-01T09:30:26.893Z,21.96
2017-05-01T09:32:56.243Z,23.04
2017-05-01T09:35:25.303Z,23.62
2017-05-01T09:37:54.407Z,22.42
2017-05-01T09:40:23.494Z,24.56
2017-05-01T09:42:52.591Z,23.22
2017-05-01T09:45:21.711Z,25.54
2017-05-01T09:47:51.081Z,24.70
2017-05-01T09:52:54.810Z,28.96
2017-05-01T09:55:24.036Z,24.60
2017-05-01T09:57:53.936Z,25.62
2017-05-01T10:00:23.794Z,26.22
2017-05-01T10:02:52.931Z,28.94
2017-05-01T10:05:22.035Z,25.76
2017-05-01T10:07:52.008Z,30.84
2017-05-01T10:10:21.102Z,25.52
2017-05-01T10:12:50.192Z,29.68
2017-05-01T10:15:19.307Z,27.78
2017-05-01T10:17:48.408Z,30.04
2017-05-01T10:20:17.779Z,27.88
2017-05-01T10:22:46.878Z,27.94
2017-05-01T10:25:15.977Z,27.78
2017-05-01T10:27:45.097Z,24.96
2017-05-01T10:30:14.191Z,27.80
2017-05-01T10:32:43.307Z,29.52
2017-05-01T10:35:13.159Z,29.84
2017-05-01T10:37:43.116Z,25.92
2017-05-01T10:40:12.191Z,23.66
2017-05-01T10:42:41.288Z,26.54
2017-05-01T10:45:10.402Z,24.94
2017-05-01T10:47:39.739Z,26.68
2017-05-01T10:50:09.082Z,27.36
2017-05-01T10:52:38.160Z,25.04
2017-05-01T10:55:07.250Z,23.24
2017-05-01T10:57:36.443Z,29.06
2017-05-01T11:00:05.531Z,26.28
2017-05-01T11:02:34.934Z,24.56
2017-05-01T11:05:04.065Z,26.46
2017-05-01T11:07:33.157Z,23.38
2017-05-01T11:10:02.307Z,22.32
2017-05-01T11:12:31.407Z,21.86
2017-05-01T11:15:00.530Z,23.20
2017-05-01T11:17:29.630Z,22.44
2017-05-01T11:19:58.872Z,20.96
2017-05-01T11:22:28.715Z,24.70
2017-05-01T11:24:57.811Z,23.04
2017-05-01T11:27:26.931Z,23.68
2017-05-01T11:29:56.027Z,28.92
2017-05-01T11:32:25.284Z,26.40
2017-05-01T11:34:55.118Z,24.32
2017-05-01T11:37:24.984Z,25.50
2017-05-01T11:39:54.474Z,24.94
2017-05-01T11:42:23.619Z,24.20
2017-05-01T11:44:52.763Z,25.22
2017-05-01T11:47:21.879Z,25.08
2017-05-01T11:49:51.871Z,23.94
2017-05-01T11:52:20.970Z,27.74
2017-05-01T11:54:50.069Z,29.10
2017-05-01T11:57:19.191Z,27.54
2017-05-01T11:59:49.038Z,25.78
2017-05-01T12:02:18.271Z,28.42
2017-05-01T12:04:47.379Z,27.58
2017-05-01T12:07:16.505Z,26.10
2017-05-01T12:09:46.363Z,25.94
2017-05-01T12:12:15.455Z,21.70
2017-05-01T12:14:44.718Z,19.50
2017-05-01T12:17:13.544Z,20.60
2017-05-01T12:19:42.636Z,23.34
2017-05-01T12:22:11.948Z,22.32
2017-05-01T12:24:41.069Z,21.84
2017-05-01T12:27:10.909Z,22.30
2017-05-01T12:29:40.149Z,25.76
2017-05-01T12:32:09.438Z,23.40
2017-05-01T12:34:38.538Z,22.30
2017-05-01T12:37:07.746Z,23.82
2017-05-01T12:39:36.871Z,28.04
2017-05-01T12:42:06.066Z,29.82
2017-05-01T12:44:35.531Z,29.02
2017-05-01T12:47:04.622Z,27.54
2017-05-01T12:49:33.728Z,25.92
2017-05-01T12:52:03.223Z,26.18
2017-05-01T12:54:32.319Z,23.22
2017-05-01T12:57:01.501Z,22.34
2017-05-01T12:59:30.708Z,24.34
2017-05-01T13:01:59.807Z,24.46
2017-05-01T13:04:28.891Z,24.68
2017-05-01T13:06:58.145Z,27.74
2017-05-01T13:09:28.335Z,24.26
2017-05-01T13:11:57.575Z,27.20
2017-05-01T13:14:26.801Z,36.80
2017-05-01T13:16:55.999Z,28.24
2017-05-01T13:19:25.098Z,20.72
2017-05-01T13:21:54.223Z,23.72
2017-05-01T13:24:23.320Z,25.44
2017-05-01T13:26:52.539Z,24.74
2017-05-01T13:29:22.380Z,22.70
2017-05-01T13:31:51.472Z,24.24
2017-05-01T13:34:21.723Z,22.60
2017-05-01T13:36:51.002Z,21.64
2017-05-01T13:39:20.121Z,20.22
2017-05-01T13:41:49.240Z,20.26
2017-05-01T13:44:18.300Z,20.14
2017-05-01T13:46:47.760Z,19.10
2017-05-01T13:49:17.597Z,18.88
2017-05-01T13:51:46.673Z,17.26
2017-05-01T13:54:16.643Z,15.78
2017-05-01T13:56:45.740Z,19.68
2017-05-01T13:59:14.863Z,19.82
2017-05-01T14:01:44.131Z,20.26
2017-05-01T14:04:13.850Z,17.76
2017-05-01T14:06:42.951Z,16.68
2017-05-01T14:09:12.732Z,16.18
2017-05-01T14:11:41.854Z,20.96
2017-05-01T14:14:10.955Z,21.26
2017-05-01T14:16:40.838Z,19.14
2017-05-01T14:19:09.954Z,17.94
2017-05-01T14:21:39.413Z,18.36
2017-05-01T14:24:08.507Z,21.14
2017-05-01T14:26:37.625Z,21.80
2017-05-01T14:29:06.734Z,19.40
2017-05-01T14:31:35.825Z,23.44
2017-05-01T14:34:05.443Z,22.40
2017-05-01T14:36:34.535Z,20.50
2017-05-01T14:39:03.639Z,19.98
2017-05-01T14:41:32.791Z,19.10
2017-05-01T14:44:01.914Z,17.62
2017-05-01T14:46:31.110Z,19.78
2017-05-01T14:49:00.210Z,21.92
2017-05-01T14:51:29.325Z,22.30
2017-05-01T14:53:58.512Z,20.16
2017-05-01T14:56:28.214Z,17.94
2017-05-01T14:58:58.505Z,17.92
2017-05-01T15:01:27.716Z,17.76
2017-05-01T15:03:56.845Z,18.74
2017-05-01T15:06:26.274Z,20.48
2017-05-01T15:08:56.135Z,20.32
2017-05-01T15:11:25.448Z,21.48
2017-05-01T15:13:54.605Z,17.52
2017-05-01T15:16:24.452Z,18.32
2017-05-01T15:18:54.560Z,19.14
2017-05-01T15:21:23.664Z,17.66
2017-05-01T15:23:52.803Z,17.54
2017-05-01T15:26:22.008Z,20.10
2017-05-01T15:28:51.858Z,20.22
2017-05-01T15:31:21.289Z,20.38
2017-05-01T15:33:50.502Z,16.42
2017-05-01T15:36:20.461Z,15.92
2017-05-01T15:38:49.858Z,18.24
2017-05-01T15:41:18.998Z,18.36
2017-05-01T15:43:48.951Z,21.54
2017-05-01T15:46:18.720Z,20.46
2017-05-01T15:48:47.961Z,19.50
2017-05-01T15:51:17.202Z,18.04
2017-05-01T15:53:46.445Z,17.88
2017-05-01T15:56:15.630Z,18.38
2017-05-01T15:58:44.755Z,19.16
2017-05-01T16:01:13.838Z,16.42
2017-05-01T16:03:44.126Z,16.52
2017-05-01T16:06:13.200Z,17.32
2017-05-01T16:08:42.409Z,18.58
2017-05-01T16:11:12.444Z,18.04
2017-05-01T16:13:41.622Z,24.66
2017-05-01T16:16:11.142Z,17.30
2017-05-01T16:18:40.394Z,18.64
2017-05-01T16:21:09.968Z,19.38
2017-05-01T16:23:39.154Z,21.00
2017-05-01T16:26:08.456Z,18.38
2017-05-01T16:28:37.705Z,17.92
2017-05-01T16:31:07.479Z,21.70
2017-05-01T16:33:37.548Z,20.44
2017-05-01T16:36:07.485Z,19.74
2017-05-01T16:38:37.367Z,21.10
2017-05-01T16:41:07.563Z,22.32
2017-05-01T16:43:36.683Z,22.22
2017-05-01T16:48:41.255Z,24.36
2017-05-01T16:51:10.574Z,19.30
2017-05-01T16:53:40.029Z,20.92
2017-05-01T16:56:09.174Z,23.04
2017-05-01T16:58:38.359Z,24.38
2017-05-01T17:01:07.451Z,26.70
2017-05-01T17:03:37.415Z,21.76
2017-05-01T17:06:06.526Z,21.64
2017-05-01T17:08:35.667Z,25.18
2017-05-01T17:11:04.853Z,20.90
2017-05-01T17:13:34.695Z,20.46
2017-05-01T17:16:03.809Z,21.10
2017-05-01T17:18:32.913Z,20.98
2017-05-01T17:21:02.177Z,20.50
2017-05-01T17:23:31.275Z,19.92
2017-05-01T17:26:00.431Z,19.86
2017-05-01T17:28:30.024Z,21.66
2017-05-01T17:30:59.530Z,18.68
2017-05-01T17:33:29.042Z,16.96
2017-05-01T17:35:58.535Z,19.00
2017-05-01T17:38:27.708Z,19.00
2017-05-01T17:40:56.826Z,19.38
2017-05-01T17:43:25.891Z,21.38
2017-05-01T17:45:55.824Z,18.64
2017-05-01T17:48:24.900Z,20.98
2017-05-01T17:50:53.996Z,22.12
2017-05-01T17:53:23.099Z,18.22
2017-05-01T17:55:52.900Z,17.28
2017-05-01T17:58:22.018Z,19.14
2017-05-01T18:00:51.117Z,20.02
2017-05-01T18:03:21.023Z,21.12
2017-05-01T18:05:50.152Z,21.42
2017-05-01T18:08:19.280Z,22.18
2017-05-01T18:10:48.394Z,22.32
2017-05-01T18:13:17.488Z,21.24
2017-05-01T18:15:46.854Z,28.46
2017-05-01T18:18:16.075Z,21.90
2017-05-01T18:20:45.139Z,24.90
2017-05-01T18:23:14.232Z,23.06
2017-05-01T18:25:43.297Z,23.58
2017-05-01T18:28:12.478Z,22.56
2017-05-01T18:30:41.603Z,21.68
2017-05-01T18:33:11.014Z,21.20
2017-05-01T18:35:40.163Z,17.78
2017-05-01T18:38:09.244Z,21.10
2017-05-01T18:40:38.515Z,20.54
2017-05-01T18:43:08.356Z,19.02
2017-05-01T18:45:38.193Z,17.64
2017-05-01T18:48:07.320Z,19.16
2017-05-01T18:50:36.423Z,16.94
2017-05-01T18:53:05.625Z,16.50
2017-05-01T18:55:35.839Z,16.56
2017-05-01T18:58:05.047Z,18.36
2017-05-01T19:00:34.152Z,19.24
2017-05-01T19:03:03.373Z,14.18
2017-05-01T19:05:32.443Z,18.22
2017-05-01T19:08:02.255Z,15.12
2017-05-01T19:10:32.203Z,17.14
2017-05-01T19:13:01.409Z,15.20
2017-05-01T19:15:30.482Z,16.50
2017-05-01T19:17:59.584Z,13.34
2017-05-01T19:20:29.379Z,12.58
2017-05-01T19:22:58.911Z,13.42
2017-05-01T19:25:27.998Z,18.26
2017-05-01T19:27:57.098Z,12.52
2017-05-01T19:30:26.202Z,15.28
2017-05-01T19:32:55.272Z,19.20
2017-05-01T19:35:24.505Z,13.32
2017-05-01T19:37:53.592Z,13.70
2017-05-01T19:40:22.694Z,10.68
2017-05-01T19:42:51.806Z,10.28
2017-05-01T19:45:20.951Z,9.74
2017-05-01T19:47:50.210Z,14.22
2017-05-01T19:50:19.310Z,9.86
2017-05-01T19:52:48.392Z,11.58
2017-05-01T19:55:17.534Z,11.86
2017-05-01T19:57:46.619Z,11.72
2017-05-01T20:00:16.126Z,11.34
2017-05-01T20:02:45.230Z,12.62
2017-05-01T20:05:14.301Z,11.96
2017-05-01T20:07:43.692Z,11.08
2017-05-01T20:10:12.768Z,11.04
2017-05-01T20:12:42.287Z,11.90
2017-05-01T20:15:11.367Z,10.96
2017-05-01T20:17:40.654Z,11.90
2017-05-01T20:20:09.734Z,14.82
2017-05-01T20:22:38.810Z,11.28
2017-05-01T20:25:08.200Z,13.26
2017-05-01T20:27:37.263Z,10.60
2017-05-01T20:30:06.384Z,12.22
2017-05-01T20:32:35.494Z,11.60
2017-05-01T20:35:04.583Z,11.08
2017-05-01T20:37:33.826Z,11.50
2017-05-01T20:40:02.922Z,12.06
2017-05-01T20:42:31.994Z,14.08
2017-05-01T20:45:01.103Z,12.04
2017-05-01T20:47:30.184Z,11.68
2017-05-01T20:49:59.278Z,13.26
2017-05-01T20:52:28.372Z,10.54
2017-05-01T20:54:57.741Z,12.70
2017-05-01T20:57:26.804Z,12.56
2017-05-01T20:59:55.910Z,12.30
2017-05-01T21:02:25.766Z,12.80
2017-05-01T21:04:54.863Z,12.94
2017-05-01T21:07:24.119Z,13.60
2017-05-01T21:09:53.180Z,13.58
2017-05-01T21:12:22.271Z,12.74
2017-05-01T21:14:51.372Z,12.30
2017-05-01T21:17:20.599Z,12.86
2017-05-01T21:19:50.439Z,14.16
2017-05-01T21:22:20.268Z,14.84
2017-05-01T21:24:49.413Z,16.26
2017-05-01T21:27:18.488Z,19.90
2017-05-01T21:29:47.883Z,15.02
2017-05-01T21:32:17.290Z,13.54
2017-05-01T21:34:46.359Z,13.52
2017-05-01T21:37:15.467Z,14.30
2017-05-01T21:39:44.539Z,15.14
2017-05-01T21:42:13.659Z,15.64
2017-05-01T21:44:42.719Z,16.46
2017-05-01T21:47:12.046Z,14.60
2017-05-01T21:49:41.147Z,16.58
2017-05-01T21:52:11.048Z,11.20
2017-05-01T21:54:40.136Z,10.52
2017-05-01T21:57:09.231Z,12.10
2017-05-01T21:59:38.762Z,10.68
2017-05-01T22:02:07.859Z,12.74
2017-05-01T22:04:37.883Z,13.16
2017-05-01T22:07:06.975Z,12.08
2017-05-01T22:09:36.067Z,13.00
2017-05-01T22:12:05.146Z,12.46
2017-05-01T22:14:34.246Z,14.26
2017-05-01T22:17:03.548Z,12.30
2017-05-01T22:19:32.598Z,13.76
2017-05-01T22:22:01.690Z,16.80
2017-05-01T22:24:30.811Z,15.52
2017-05-01T22:26:59.871Z,13.68
2017-05-01T22:29:29.850Z,12.90
2017-05-01T22:31:58.939Z,12.56
2017-05-01T22:34:28.035Z,15.86
2017-05-01T22:36:57.924Z,14.34
2017-05-01T22:39:27.007Z,16.28
2017-05-01T22:41:56.224Z,13.44
2017-05-01T22:44:25.303Z,13.06
2017-05-01T22:46:54.524Z,13.64
2017-05-01T22:49:23.619Z,14.90
2017-05-01T22:51:52.724Z,14.76
2017-05-01T22:54:21.839Z,14.92
2017-05-01T22:56:51.111Z,16.92
2017-05-01T22:59:20.495Z,14.96
2017-05-01T23:01:49.583Z,15.46
2017-05-01T23:04:18.789Z,15.76
2017-05-01T23:06:47.889Z,15.06
2017-05-01T23:09:16.948Z,17.04
2017-05-01T23:11:46.991Z,14.64
2017-05-01T23:14:16.779Z,15.02
2017-05-01T23:16:45.877Z,17.10
2017-05-01T23:19:15.717Z,15.78
2017-05-01T23:21:44.795Z,14.70
2017-05-01T23:24:14.099Z,15.50
2017-05-01T23:26:43.191Z,15.98
2017-05-01T23:29:12.521Z,13.60
2017-05-01T23:31:41.638Z,15.62
2017-05-01T23:34:11.494Z,15.70
2017-05-01T23:36:40.707Z,14.54
2017-05-01T23:39:09.799Z,13.02
2017-05-01T23:41:38.895Z,16.18
2017-05-01T23:44:10.062Z,14.16
2017-05-01T23:46:39.235Z,14.80
2017-05-01T23:49:08.631Z,13.46
2017-05-01T23:51:37.708Z,14.44
2017-05-01T23:54:06.807Z,12.44
2017-05-01T23:56:35.910Z,13.74
2017-05-01T23:59:04.976Z,12.74
